BBC Polonia — V2EZ6 — position and weather

sailwx.info

Track history (hours):
 
Tides and Currents Weather Stations Pressure Air Temp Water Temp Dewpoint Dewpoint Depression Visibility Wind Speed Wind Dir Waves Ship Positions

BBC Polonia

Last reported at 2015-Feb-12 01:30 UTC. Time now 2015-Mar-06 14:16 UTC.
Position N 34°34' W 076°01'.
Warning: this ship's position is 22 days out of date.

Length 123 m; draft 5.6 m.

Type: Cargo ship. MMSI: 305614000.

Date/timePositionNaut miles runAvg speedWind from/ knotsBaromVisibWave heightAir tempDewpointWater temp
2015-Feb-12 01:30N 34°34' W 076°01'19911.0
2015-Feb-11 07:25N 37°53' W 076°10'1112.5
2015-Feb-11 06:33N 38°03' W 076°14'5012.2
2015-Feb-11 02:29N 38°52' W 076°24'1212.3
2015-Feb-11 01:32N 39°04' W 076°24'1010.6
2015-Feb-11 00:33N 39°12' W 076°31'3 2.8
2015-Feb-10 23:32N 39°15' W 076°33'0 0.0
2015-Feb-10 22:32N 39°15' W 076°33'0 0.0
2015-Feb-10 21:32N 39°15' W 076°33'0 0.0
2015-Feb-10 20:27N 39°15' W 076°33'0 0.0
2015-Feb-10 19:32N 39°15' W 076°33'0 0.0
2015-Feb-10 18:32N 39°15' W 076°33'0 0.0
2015-Feb-10 17:33N 39°15' W 076°33'0 0.0
2015-Feb-10 16:32N 39°15' W 076°33'0 0.0
2015-Feb-10 15:32N 39°15' W 076°33'0 0.0
2015-Feb-10 14:32N 39°15' W 076°33'0 0.0
2015-Feb-10 13:29N 39°15' W 076°33'0 0.0
2015-Feb-10 12:32N 39°15' W 076°33'0 0.0
2015-Feb-10 11:32N 39°15' W 076°33'0 0.0
2015-Feb-10 10:32N 39°15' W 076°33'0 0.0
2015-Feb-10 09:32N 39°15' W 076°33'0 0.0
2015-Feb-10 08:33N 39°15' W 076°33'0 0.0
2015-Feb-10 07:32N 39°15' W 076°33'0 0.0
2015-Feb-10 06:32N 39°15' W 076°33'0 0.0
2015-Feb-10 05:32N 39°15' W 076°33'0 0.0
2015-Feb-10 04:26N 39°15' W 076°33'0 0.0
2015-Feb-10 03:32N 39°15' W 076°33'0 0.1
2015-Feb-10 02:30N 39°15' W 076°33'4 4.5
2015-Feb-10 01:34N 39°12' W 076°29'0 0.4
2015-Feb-10 00:24N 39°13' W 076°29'0 0.0
2015-Feb-09 23:15N 39°13' W 076°29'0 0.0
2015-Feb-09 22:06N 39°13' W 076°29'0 0.0
2015-Feb-09 21:30N 39°13' W 076°29'0 0.0
2015-Feb-09 20:33N 39°13' W 076°29'0 0.0
2015-Feb-09 19:06N 39°13' W 076°29'0 0.0
2015-Feb-09 18:33N 39°13' W 076°29'0 0.0
2015-Feb-09 17:33N 39°13' W 076°29'0 0.0
2015-Feb-09 16:30N 39°13' W 076°29'0 0.0
2015-Feb-09 13:33N 39°13' W 076°29'0 0.0
2015-Feb-09 12:18N 39°13' W 076°29'0 0.0
2015-Feb-09 11:18N 39°13' W 076°29'0 0.0
2015-Feb-09 10:33N 39°13' W 076°29'1 0.8
2015-Feb-09 09:33N 39°12' W 076°29'6 6.3
2015-Feb-09 08:33N 39°07' W 076°24'1111.3
2015-Feb-09 07:33N 38°56' W 076°23'4912.1
2015-Feb-09 03:32N 38°08' W 076°14'1313.1
2015-Feb-09 02:32N 37°55' W 076°10'  
Track history (hours):
 
Tides and Currents Weather Stations Pressure Air Temp Water Temp Dewpoint Dewpoint Depression Visibility Wind Speed Wind Dir Waves Ship Positions

BBC Polonia

Last reported at 2015-Feb-12 01:30 UTC. Time now 2015-Mar-06 14:17 UTC.
Position N 34°34' W 076°01'.
Warning: this ship's position is 22 days out of date.

Length 123 m; draft 5.6 m.

Type: Cargo ship. MMSI: 305614000.

Date/timePositionNaut miles runAvg speedWind from/ knotsBaromVisibWave heightAir tempDewpointWater temp
2015-Feb-12 01:30N 34°34' W 076°01'19911.0
2015-Feb-11 07:25N 37°53' W 076°10'1112.5
2015-Feb-11 06:33N 38°03' W 076°14'5012.2
2015-Feb-11 02:29N 38°52' W 076°24'1212.3
2015-Feb-11 01:32N 39°04' W 076°24'1010.6
2015-Feb-11 00:33N 39°12' W 076°31'3 2.8
2015-Feb-10 23:32N 39°15' W 076°33'0 0.0
2015-Feb-10 22:32N 39°15' W 076°33'0 0.0
2015-Feb-10 21:32N 39°15' W 076°33'0 0.0
2015-Feb-10 20:27N 39°15' W 076°33'0 0.0
2015-Feb-10 19:32N 39°15' W 076°33'0 0.0
2015-Feb-10 18:32N 39°15' W 076°33'0 0.0
2015-Feb-10 17:33N 39°15' W 076°33'0 0.0
2015-Feb-10 16:32N 39°15' W 076°33'0 0.0
2015-Feb-10 15:32N 39°15' W 076°33'0 0.0
2015-Feb-10 14:32N 39°15' W 076°33'0 0.0
2015-Feb-10 13:29N 39°15' W 076°33'0 0.0
2015-Feb-10 12:32N 39°15' W 076°33'0 0.0
2015-Feb-10 11:32N 39°15' W 076°33'0 0.0
2015-Feb-10 10:32N 39°15' W 076°33'0 0.0
2015-Feb-10 09:32N 39°15' W 076°33'0 0.0
2015-Feb-10 08:33N 39°15' W 076°33'0 0.0
2015-Feb-10 07:32N 39°15' W 076°33'0 0.0
2015-Feb-10 06:32N 39°15' W 076°33'0 0.0
2015-Feb-10 05:32N 39°15' W 076°33'0 0.0
2015-Feb-10 04:26N 39°15' W 076°33'0 0.0
2015-Feb-10 03:32N 39°15' W 076°33'0 0.1
2015-Feb-10 02:30N 39°15' W 076°33'4 4.5
2015-Feb-10 01:34N 39°12' W 076°29'0 0.4
2015-Feb-10 00:24N 39°13' W 076°29'0 0.0
2015-Feb-09 23:15N 39°13' W 076°29'0 0.0
2015-Feb-09 22:06N 39°13' W 076°29'0 0.0
2015-Feb-09 21:30N 39°13' W 076°29'0 0.0
2015-Feb-09 20:33N 39°13' W 076°29'0 0.0
2015-Feb-09 19:06N 39°13' W 076°29'0 0.0
2015-Feb-09 18:33N 39°13' W 076°29'0 0.0
2015-Feb-09 17:33N 39°13' W 076°29'0 0.0
2015-Feb-09 16:30N 39°13' W 076°29'0 0.0
2015-Feb-09 13:33N 39°13' W 076°29'0 0.0
2015-Feb-09 12:18N 39°13' W 076°29'0 0.0
2015-Feb-09 11:18N 39°13' W 076°29'0 0.0
2015-Feb-09 10:33N 39°13' W 076°29'1 0.8
2015-Feb-09 09:33N 39°12' W 076°29'6 6.3
2015-Feb-09 08:33N 39°07' W 076°24'1111.3
2015-Feb-09 07:33N 38°56' W 076°23'4912.1
2015-Feb-09 03:32N 38°08' W 076°14'1313.1
2015-Feb-09 02:32N 37°55' W 076°10'  

Dump ship's entire track history